Time;durP1;ratioP1;P1;durP2;ratioP2;P2;SDS_P1;SDS_P2;PMS_P1;PMS_P2;Temp;Humidity;BMP_temperature;BMP_pressure;BME280_temperature;BME280_humidity;BME280_pressure;Samples;Min_cycle;Max_cycle;Signal;HPM_P1;HPM_P2
2022/01/16 00:06:17;;;;;;;51.10;27.05;;;;;;;;;;6350891;22;20034;-92
2022/01/16 00:08:58;;;;;;;48.63;26.38;;;;;;;;;;6329009;22;20022;-93
2022/01/16 00:11:25;;;;;;;56.42;27.10;;;;;;;;;;6326265;22;20023;-93
2022/01/16 00:14:06;;;;;;;54.13;27.00;;;;;;;;;;6324612;22;20022;-94
2022/01/16 02:31:01;;;;;;;57.90;24.33;;;;;;;;;;6265892;22;20022;-93
2022/01/16 02:49:24;;;;;;;59.83;26.25;;;;;;;;;;6220555;23;20023;-93
2022/01/16 02:51:57;;;;;;;56.83;25.95;;;;;;;;;;6194864;23;20030;-92
2022/01/16 02:54:40;;;;;;;55.33;25.70;;;;;;;;;;6199455;23;20025;-92
2022/01/16 02:57:08;;;;;;;52.25;25.10;;;;;;;;;;6197404;23;20044;-92
2022/01/16 03:43:34;;;;;;;54.33;25.63;;;;;;;;;;6252376;22;20028;-92
2022/01/16 03:46:14;;;;;;;49.17;25.35;;;;;;;;;;6252882;23;20088;-92
2022/01/16 03:48:56;;;;;;;57.25;26.98;;;;;;;;;;6248166;23;20077;-92
2022/01/16 04:27:43;;;;;;;51.35;27.40;;;;;;;;;;6257030;22;20035;-92
2022/01/16 04:30:24;;;;;;;57.08;26.15;;;;;;;;;;6252499;23;20036;-91
2022/01/16 04:32:51;;;;;;;59.22;27.55;;;;;;;;;;6252830;23;20024;-91
2022/01/16 04:35:18;;;;;;;58.97;28.73;;;;;;;;;;6252020;23;20099;-92
2022/01/16 04:37:59;;;;;;;59.42;29.35;;;;;;;;;;6261562;22;20012;-92
2022/01/16 05:47:56;;;;;;;102.35;39.88;;;;;;;;;;6264211;22;20035;-92
2022/01/16 05:50:23;;;;;;;109.60;42.25;;;;;;;;;;6264786;22;20027;-92
2022/01/16 05:52:50;;;;;;;103.13;40.95;;;;;;;;;;6264549;22;20012;-92
2022/01/16 05:55:18;;;;;;;110.97;42.67;;;;;;;;;;6256606;22;20057;-92
2022/01/16 05:57:45;;;;;;;113.00;43.20;;;;;;;;;;6260942;23;20028;-92
2022/01/16 06:00:13;;;;;;;121.80;43.20;;;;;;;;;;6259497;23;20016;-92
2022/01/16 06:02:53;;;;;;;115.88;44.35;;;;;;;;;;6258871;23;20085;-92
2022/01/16 06:05:21;;;;;;;120.00;45.65;;;;;;;;;;6257898;23;20055;-91
2022/01/16 06:07:55;;;;;;;116.68;43.30;;;;;;;;;;6234575;23;20050;-92
2022/01/16 06:10:22;;;;;;;112.13;43.25;;;;;;;;;;6260996;23;20024;-91
2022/01/16 07:04:50;;;;;;;144.32;48.42;;;;;;;;;;6286792;22;20035;-94
2022/01/16 07:07:18;;;;;;;128.25;44.20;;;;;;;;;;6259245;22;20023;-92
2022/01/16 07:09:45;;;;;;;130.77;48.45;;;;;;;;;;6259790;22;20032;-92
2022/01/16 07:12:22;;;;;;;147.43;49.90;;;;;;;;;;6256670;22;20023;-92
2022/01/16 07:15:02;;;;;;;137.02;47.00;;;;;;;;;;6259482;22;20030;-92
2022/01/16 07:17:29;;;;;;;144.30;46.97;;;;;;;;;;6255408;22;20024;-92
2022/01/16 07:20:15;;;;;;;121.30;44.53;;;;;;;;;;6259504;22;20051;-93
2022/01/16 07:22:43;;;;;;;135.38;44.30;;;;;;;;;;6256459;22;20028;-92
2022/01/16 07:25:48;;;;;;;135.25;46.08;;;;;;;;;;6257685;22;20028;-92
2022/01/16 07:28:16;;;;;;;139.00;47.08;;;;;;;;;;6256862;22;20012;-92
2022/01/16 07:30:43;;;;;;;146.23;47.00;;;;;;;;;;6269588;22;20038;-92
2022/01/16 07:33:31;;;;;;;128.57;43.05;;;;;;;;;;6272058;22;20008;-92
2022/01/16 07:40:01;;;;;;;138.70;47.90;;;;;;;;;;6298232;22;20018;-93
2022/01/16 07:56:33;;;;;;;127.80;43.47;;;;;;;;;;6194829;23;20027;-93
2022/01/16 07:59:00;;;;;;;121.20;43.95;;;;;;;;;;6165145;23;20084;-93
2022/01/16 08:01:28;;;;;;;123.63;42.25;;;;;;;;;;6165000;23;20128;-93
2022/01/16 08:03:55;;;;;;;127.45;44.38;;;;;;;;;;6176194;23;20051;-93
2022/01/16 08:48:13;;;;;;;141.68;45.33;;;;;;;;;;6276783;22;20080;-94
2022/01/16 08:53:29;;;;;;;130.03;44.47;;;;;;;;;;6242403;22;20028;-95
2022/01/16 08:56:06;;;;;;;124.75;41.40;;;;;;;;;;6241409;22;20419;-95
2022/01/16 09:31:32;;;;;;;120.38;41.33;;;;;;;;;;6304390;22;20036;-94
2022/01/16 09:45:21;;;;;;;112.65;39.38;;;;;;;;;;6209525;23;20052;-94
2022/01/16 10:01:57;;;;;;;106.03;39.45;;;;;;;;;;6219691;22;20047;-93
2022/01/16 10:11:43;;;;;;;113.72;37.47;;;;;;;;;;6179271;23;20020;-93
2022/01/16 10:14:33;;;;;;;110.22;38.28;;;;;;;;;;6178827;23;20025;-94
2022/01/16 10:17:16;;;;;;;110.43;38.92;;;;;;;;;;6178434;23;20034;-95
2022/01/16 10:23:56;;;;;;;119.43;40.80;;;;;;;;;;6178474;23;20085;-93
2022/01/16 10:26:24;;;;;;;131.05;39.22;;;;;;;;;;6178034;23;20020;-93
2022/01/16 10:36:09;;;;;;;109.47;39.88;;;;;;;;;;6245742;22;20031;-93
2022/01/16 11:02:40;;;;;;;142.27;45.75;;;;;;;;;;6265947;22;20023;-93
2022/01/16 11:05:10;;;;;;;131.82;46.05;;;;;;;;;;6213935;22;20076;-93
2022/01/16 11:21:51;;;;;;;110.18;41.75;;;;;;;;;;6207599;23;20072;-93
2022/01/16 11:28:27;;;;;;;125.80;45.55;;;;;;;;;;6089698;22;20017;-93
2022/01/16 11:31:43;;;;;;;111.78;43.30;;;;;;;;;;6205020;22;20039;-93
2022/01/16 11:36:56;;;;;;;108.82;41.22;;;;;;;;;;6272590;22;19950;-93
2022/01/16 11:43:18;;;;;;;107.45;43.05;;;;;;;;;;6303957;22;20062;-93
2022/01/16 12:26:51;;;;;;;94.80;38.47;;;;;;;;;;6235546;22;20020;-92
2022/01/16 12:29:20;;;;;;;97.45;38.95;;;;;;;;;;6199082;22;20032;-93
2022/01/16 12:35:38;;;;;;;90.65;39.58;;;;;;;;;;6139017;23;20030;-92
2022/01/16 12:38:19;;;;;;;100.13;40.37;;;;;;;;;;6116240;23;20026;-92
2022/01/16 12:55:11;;;;;;;94.00;37.97;;;;;;;;;;6152513;23;20519;-93
2022/01/16 12:57:48;;;;;;;87.35;38.28;;;;;;;;;;6120447;23;20033;-92
2022/01/16 13:28:39;;;;;;;78.65;35.17;;;;;;;;;;6332946;22;20031;-93
2022/01/16 14:07:32;;;;;;;57.50;27.60;;;;;;;;;;6266359;22;20049;-92
2022/01/16 14:09:59;;;;;;;54.05;28.50;;;;;;;;;;6258269;22;20024;-92
2022/01/16 14:12:27;;;;;;;57.45;27.42;;;;;;;;;;6257324;22;20046;-93
2022/01/16 14:15:14;;;;;;;58.08;27.20;;;;;;;;;;6256429;22;20162;-92
2022/01/16 14:17:55;;;;;;;70.43;29.23;;;;;;;;;;6287824;22;20100;-93
2022/01/16 14:20:49;;;;;;;60.45;29.55;;;;;;;;;;6265584;22;20020;-93
2022/01/16 14:23:18;;;;;;;57.45;28.70;;;;;;;;;;6255711;22;20027;-94
2022/01/16 14:25:45;;;;;;;59.38;31.15;;;;;;;;;;6253846;22;20028;-93
2022/01/16 14:28:13;;;;;;;66.68;29.75;;;;;;;;;;6254937;22;20023;-95
2022/01/16 14:30:52;;;;;;;64.93;30.85;;;;;;;;;;6256057;22;20024;-92
2022/01/16 14:33:39;;;;;;;60.42;31.15;;;;;;;;;;6261833;22;20023;-93
2022/01/16 14:36:08;;;;;;;58.17;29.95;;;;;;;;;;6261117;22;20034;-93
2022/01/16 14:38:38;;;;;;;58.03;29.70;;;;;;;;;;6262026;22;20024;-93
2022/01/16 14:41:12;;;;;;;55.28;27.30;;;;;;;;;;6260059;22;20029;-93
2022/01/16 14:43:54;;;;;;;52.78;26.92;;;;;;;;;;6260753;22;20029;-94
2022/01/16 14:46:24;;;;;;;52.85;27.50;;;;;;;;;;6259285;22;20024;-93
2022/01/16 14:48:53;;;;;;;59.67;27.67;;;;;;;;;;6254256;22;20031;-94
2022/01/16 14:51:20;;;;;;;50.83;25.13;;;;;;;;;;6254499;22;20068;-93
2022/01/16 14:53:48;;;;;;;55.85;25.88;;;;;;;;;;6258669;22;20045;-93
2022/01/16 14:56:15;;;;;;;57.85;26.33;;;;;;;;;;6257514;22;20024;-93
2022/01/16 14:59:03;;;;;;;54.97;24.90;;;;;;;;;;6286170;22;20027;-93
2022/01/16 15:01:30;;;;;;;51.47;24.98;;;;;;;;;;6261689;22;20023;-94
2022/01/16 15:03:58;;;;;;;47.13;24.35;;;;;;;;;;6261469;22;20076;-93
2022/01/16 15:06:26;;;;;;;54.63;24.85;;;;;;;;;;6264745;22;20041;-93
2022/01/16 15:08:57;;;;;;;45.78;23.20;;;;;;;;;;6268945;22;21843;-94
2022/01/16 15:11:24;;;;;;;41.70;21.25;;;;;;;;;;6267957;22;20071;-91
2022/01/16 15:13:59;;;;;;;47.20;23.05;;;;;;;;;;6268271;22;20101;-92
2022/01/16 15:16:34;;;;;;;45.45;22.30;;;;;;;;;;6268095;22;20012;-93
2022/01/16 15:19:04;;;;;;;43.25;21.33;;;;;;;;;;6266980;22;20016;-92
2022/01/16 15:21:39;;;;;;;49.17;20.58;;;;;;;;;;6261425;22;20024;-93
2022/01/16 15:24:16;;;;;;;36.22;18.15;;;;;;;;;;6258805;22;20024;-93
2022/01/16 15:26:43;;;;;;;39.67;18.45;;;;;;;;;;6259248;22;20176;-92
2022/01/16 15:29:17;;;;;;;41.88;18.20;;;;;;;;;;6259979;22;20024;-92
2022/01/16 15:31:50;;;;;;;41.55;18.55;;;;;;;;;;6259481;22;20024;-93
2022/01/16 15:34:20;;;;;;;34.90;16.50;;;;;;;;;;6261508;22;20084;-93
2022/01/16 15:37:16;;;;;;;37.33;16.35;;;;;;;;;;6269245;22;20036;-93
2022/01/16 15:39:44;;;;;;;38.10;17.80;;;;;;;;;;6262544;22;20016;-93
2022/01/16 15:44:48;;;;;;;40.77;16.27;;;;;;;;;;6250083;22;20026;-93
2022/01/16 15:47:16;;;;;;;37.92;16.70;;;;;;;;;;6236377;22;20038;-93
2022/01/16 15:49:51;;;;;;;33.65;16.33;;;;;;;;;;6235769;23;20020;-93
2022/01/16 15:52:19;;;;;;;37.60;15.60;;;;;;;;;;6234457;22;20028;-94
2022/01/16 15:54:49;;;;;;;34.13;16.33;;;;;;;;;;6233693;23;20035;-92
2022/01/16 15:57:18;;;;;;;28.70;14.80;;;;;;;;;;6237873;22;20016;-94
2022/01/16 15:59:51;;;;;;;32.60;15.27;;;;;;;;;;6236346;22;20064;-93
2022/01/16 16:02:22;;;;;;;34.13;15.05;;;;;;;;;;6198760;23;20009;-93
2022/01/16 16:04:50;;;;;;;28.40;14.23;;;;;;;;;;6200486;22;20058;-93
2022/01/16 16:07:24;;;;;;;30.38;13.52;;;;;;;;;;6208111;23;20073;-93
2022/01/16 16:09:56;;;;;;;28.92;13.13;;;;;;;;;;6210202;22;20029;-94
2022/01/16 16:12:28;;;;;;;24.08;13.10;;;;;;;;;;6234446;22;20012;-93
2022/01/16 16:14:55;;;;;;;30.42;14.85;;;;;;;;;;6208744;22;20038;-93
2022/01/16 16:17:35;;;;;;;29.13;13.68;;;;;;;;;;6204259;22;20121;-93
2022/01/16 16:20:21;;;;;;;24.67;12.82;;;;;;;;;;6204991;23;20013;-93
2022/01/16 16:22:55;;;;;;;29.05;11.82;;;;;;;;;;6205480;23;20013;-94
2022/01/16 16:25:27;;;;;;;27.33;13.15;;;;;;;;;;6203394;23;20056;-92
2022/01/16 16:27:59;;;;;;;29.23;11.23;;;;;;;;;;6202052;22;20860;-92
2022/01/16 16:30:28;;;;;;;28.92;12.55;;;;;;;;;;6173623;23;20029;-95
2022/01/16 16:32:56;;;;;;;26.75;12.52;;;;;;;;;;6172202;22;20036;-93
2022/01/16 16:35:30;;;;;;;27.70;13.82;;;;;;;;;;6200062;23;20024;-92
2022/01/16 16:37:57;;;;;;;29.40;13.38;;;;;;;;;;6173379;23;20032;-92
2022/01/16 16:40:27;;;;;;;26.90;12.35;;;;;;;;;;6171885;23;20029;-92
2022/01/16 16:42:54;;;;;;;27.58;12.90;;;;;;;;;;6172856;23;20048;-92
2022/01/16 16:45:22;;;;;;;30.20;12.48;;;;;;;;;;6169712;23;20025;-92
2022/01/16 16:47:49;;;;;;;22.60;11.80;;;;;;;;;;6169874;23;20203;-92
2022/01/16 16:50:16;;;;;;;29.88;13.90;;;;;;;;;;6178004;22;20033;-93
2022/01/16 16:52:49;;;;;;;21.50;12.52;;;;;;;;;;6177544;22;20029;-92
2022/01/16 16:55:16;;;;;;;30.13;12.98;;;;;;;;;;6173473;22;20144;-92
2022/01/16 16:57:44;;;;;;;32.30;12.68;;;;;;;;;;6204504;23;20017;-92
2022/01/16 17:00:11;;;;;;;27.17;13.40;;;;;;;;;;6177279;22;20256;-92
2022/01/16 17:02:38;;;;;;;24.17;13.18;;;;;;;;;;6170110;23;20029;-93
2022/01/16 17:05:09;;;;;;;28.20;13.60;;;;;;;;;;6176280;22;20249;-92
2022/01/16 17:07:36;;;;;;;27.90;12.80;;;;;;;;;;6173653;23;20029;-92
2022/01/16 17:10:09;;;;;;;30.63;12.18;;;;;;;;;;6173096;23;20025;-92
2022/01/16 17:12:44;;;;;;;25.10;11.95;;;;;;;;;;6174033;23;20080;-92
2022/01/16 17:15:11;;;;;;;26.90;13.35;;;;;;;;;;6174278;23;20052;-93
2022/01/16 17:17:41;;;;;;;23.02;13.55;;;;;;;;;;6149710;23;20310;-92
2022/01/16 17:20:10;;;;;;;23.75;12.88;;;;;;;;;;6173721;23;20055;-93
2022/01/16 17:22:36;;;;;;;28.98;12.88;;;;;;;;;;6176272;22;20013;-93
2022/01/16 17:25:06;;;;;;;29.10;13.68;;;;;;;;;;6177046;22;20067;-92
2022/01/16 17:27:34;;;;;;;29.73;12.60;;;;;;;;;;6177456;22;20013;-93
2022/01/16 17:30:05;;;;;;;26.67;12.80;;;;;;;;;;6174285;22;20020;-93
2022/01/16 17:32:32;;;;;;;26.40;12.88;;;;;;;;;;6174252;22;20028;-93
2022/01/16 17:35:06;;;;;;;22.92;12.13;;;;;;;;;;6173845;22;20025;-92
2022/01/16 17:37:33;;;;;;;22.75;12.70;;;;;;;;;;6166551;23;20185;-92
2022/01/16 17:40:03;;;;;;;29.27;13.80;;;;;;;;;;6166435;23;20036;-94
2022/01/16 17:42:30;;;;;;;23.13;13.38;;;;;;;;;;6163916;23;20025;-93
2022/01/16 17:44:56;;;;;;;31.55;13.18;;;;;;;;;;6165813;23;20222;-94
2022/01/16 17:47:46;;;;;;;26.23;12.82;;;;;;;;;;6166969;23;20052;-94
2022/01/16 17:50:13;;;;;;;27.85;12.55;;;;;;;;;;6165038;23;20162;-93
2022/01/16 17:52:40;;;;;;;26.00;13.48;;;;;;;;;;6164938;23;20026;-93
2022/01/16 17:55:08;;;;;;;26.25;14.10;;;;;;;;;;6170646;22;20029;-94
2022/01/16 17:57:34;;;;;;;31.27;13.13;;;;;;;;;;6169484;23;20029;-94
2022/01/16 18:00:03;;;;;;;23.80;12.43;;;;;;;;;;6170753;22;20036;-93
2022/01/16 18:02:33;;;;;;;29.52;12.23;;;;;;;;;;6168628;23;20143;-94
2022/01/16 18:05:11;;;;;;;26.15;13.48;;;;;;;;;;6168015;23;20026;-93
2022/01/16 18:07:39;;;;;;;27.13;12.68;;;;;;;;;;6174493;22;20017;-94
2022/01/16 18:10:18;;;;;;;25.30;13.32;;;;;;;;;;6198288;23;20491;-94
2022/01/16 18:12:48;;;;;;;31.70;13.32;;;;;;;;;;6196770;23;20013;-94
2022/01/16 18:15:30;;;;;;;20.30;11.50;;;;;;;;;;6195682;23;20431;-93
2022/01/16 18:17:59;;;;;;;30.42;14.02;;;;;;;;;;6197143;23;20025;-94
2022/01/16 18:20:32;;;;;;;24.42;13.02;;;;;;;;;;6201921;23;20024;-94
2022/01/16 18:23:08;;;;;;;29.27;12.43;;;;;;;;;;6200712;23;20032;-93
2022/01/16 18:25:36;;;;;;;32.33;14.45;;;;;;;;;;6198858;23;20529;-93
2022/01/16 18:28:03;;;;;;;25.92;13.43;;;;;;;;;;6201386;23;20025;-94
2022/01/16 18:30:40;;;;;;;22.77;12.32;;;;;;;;;;6199547;23;20039;-94
2022/01/16 18:33:06;;;;;;;26.52;13.48;;;;;;;;;;6201661;23;20056;-92
2022/01/16 18:35:34;;;;;;;26.67;12.18;;;;;;;;;;6200302;23;20025;-92
2022/01/16 18:38:06;;;;;;;28.02;12.85;;;;;;;;;;6197954;23;20025;-92
2022/01/16 18:40:36;;;;;;;24.02;12.82;;;;;;;;;;6197455;23;20028;-93
2022/01/16 18:43:02;;;;;;;21.55;11.93;;;;;;;;;;6199545;23;20029;-93
2022/01/16 18:45:39;;;;;;;27.08;14.13;;;;;;;;;;6171810;23;20017;-93
2022/01/16 18:48:17;;;;;;;23.63;13.63;;;;;;;;;;6197666;23;20403;-92
2022/01/16 18:50:54;;;;;;;26.30;12.77;;;;;;;;;;6201489;23;20118;-92
2022/01/16 18:53:35;;;;;;;30.75;13.80;;;;;;;;;;6199198;23;20013;-92
2022/01/16 18:56:02;;;;;;;30.73;14.43;;;;;;;;;;6203408;23;20012;-93
2022/01/16 18:58:31;;;;;;;28.77;14.40;;;;;;;;;;6203803;23;20029;-94
2022/01/16 19:00:58;;;;;;;32.75;16.30;;;;;;;;;;6201992;23;20040;-94
2022/01/16 19:03:26;;;;;;;28.17;15.52;;;;;;;;;;6200133;23;20025;-94
2022/01/16 19:05:53;;;;;;;28.77;14.60;;;;;;;;;;6200114;23;20119;-94
2022/01/16 19:11:10;;;;;;;30.13;15.32;;;;;;;;;;6199596;23;20024;-94
2022/01/16 19:13:41;;;;;;;32.13;17.52;;;;;;;;;;6205876;22;20221;-94
2022/01/16 19:18:36;;;;;;;33.58;18.90;;;;;;;;;;6237522;22;20084;-93
2022/01/16 19:21:09;;;;;;;32.95;17.83;;;;;;;;;;6236823;22;20034;-92
2022/01/16 19:23:42;;;;;;;35.22;17.58;;;;;;;;;;6209717;22;20029;-94
2022/01/16 19:26:16;;;;;;;36.75;17.92;;;;;;;;;;6209425;22;20024;-92
2022/01/16 19:28:45;;;;;;;34.35;18.15;;;;;;;;;;6210625;22;20273;-93
2022/01/16 19:31:14;;;;;;;29.70;17.67;;;;;;;;;;6210019;22;20024;-94
2022/01/16 19:33:44;;;;;;;33.65;18.30;;;;;;;;;;6210907;22;20025;-94
2022/01/16 19:36:12;;;;;;;36.05;18.73;;;;;;;;;;6212659;22;20020;-93
2022/01/16 19:38:39;;;;;;;36.00;18.60;;;;;;;;;;6212188;22;20040;-94
2022/01/16 19:41:07;;;;;;;34.08;19.00;;;;;;;;;;6212792;22;20013;-93
2022/01/16 19:43:42;;;;;;;39.50;20.67;;;;;;;;;;6213984;22;20016;-94
2022/01/16 19:46:15;;;;;;;43.30;20.30;;;;;;;;;;6239506;23;20016;-94
2022/01/16 19:49:08;;;;;;;32.33;18.08;;;;;;;;;;6215321;22;20012;-94
2022/01/16 19:51:50;;;;;;;38.63;17.77;;;;;;;;;;6217255;23;20008;-95
2022/01/16 19:54:21;;;;;;;37.15;17.85;;;;;;;;;;6215759;23;20039;-94
2022/01/16 19:56:55;;;;;;;36.55;18.92;;;;;;;;;;6215955;23;20009;-94
2022/01/16 19:59:36;;;;;;;44.33;20.20;;;;;;;;;;6217650;23;20013;-94
2022/01/16 20:02:08;;;;;;;41.50;20.27;;;;;;;;;;6213065;23;20009;-95
2022/01/16 20:04:48;;;;;;;35.35;18.02;;;;;;;;;;6216178;23;20008;-94
2022/01/16 20:10:49;;;;;;;48.95;19.25;;;;;;;;;;6237872;23;20126;-93
2022/01/16 20:13:17;;;;;;;39.53;17.73;;;;;;;;;;6206046;22;20016;-93
2022/01/16 20:15:53;;;;;;;41.75;17.40;;;;;;;;;;6208587;23;20029;-93
2022/01/16 20:18:32;;;;;;;49.55;18.80;;;;;;;;;;6206681;23;20029;-93
2022/01/16 20:21:00;;;;;;;37.90;17.35;;;;;;;;;;6206892;23;20028;-95
2022/01/16 20:23:29;;;;;;;38.85;17.58;;;;;;;;;;6205890;23;20032;-93
2022/01/16 20:25:56;;;;;;;33.63;16.85;;;;;;;;;;6206688;23;20025;-93
2022/01/16 20:28:36;;;;;;;39.75;18.90;;;;;;;;;;6208949;22;20016;-93
2022/01/16 20:31:03;;;;;;;29.35;15.90;;;;;;;;;;6207208;23;20024;-93
2022/01/16 20:33:30;;;;;;;37.65;15.43;;;;;;;;;;6204980;23;20025;-92
2022/01/16 20:36:00;;;;;;;34.28;15.65;;;;;;;;;;6205372;23;20035;-93
2022/01/16 20:38:27;;;;;;;42.38;16.10;;;;;;;;;;6206086;22;20029;-92
2022/01/16 20:41:08;;;;;;;30.90;15.65;;;;;;;;;;6207404;23;20057;-93
2022/01/16 20:43:38;;;;;;;30.75;14.30;;;;;;;;;;6182639;23;20009;-92
2022/01/16 20:46:10;;;;;;;38.10;15.13;;;;;;;;;;6205659;22;20033;-92
2022/01/16 20:48:40;;;;;;;42.17;14.70;;;;;;;;;;6206287;23;20029;-92
2022/01/16 20:51:08;;;;;;;39.10;14.00;;;;;;;;;;6205146;22;20037;-92
2022/01/16 20:53:38;;;;;;;39.88;14.05;;;;;;;;;;6205379;23;20036;-92
2022/01/16 20:56:05;;;;;;;49.38;15.05;;;;;;;;;;6205759;22;20024;-93
2022/01/16 20:58:31;;;;;;;39.78;14.18;;;;;;;;;;6206033;23;20028;-94
2022/01/16 21:01:05;;;;;;;34.53;12.95;;;;;;;;;;6206950;22;20017;-94
2022/01/16 21:03:33;;;;;;;34.97;13.97;;;;;;;;;;6209046;22;20023;-93
2022/01/16 21:06:00;;;;;;;33.03;12.80;;;;;;;;;;6208945;23;20296;-93
2022/01/16 21:08:27;;;;;;;30.75;11.52;;;;;;;;;;6208546;23;20027;-93
2022/01/16 21:10:55;;;;;;;35.92;11.85;;;;;;;;;;6208265;23;20016;-93
2022/01/16 21:13:24;;;;;;;28.92;10.93;;;;;;;;;;6206976;23;20072;-93
2022/01/16 21:15:53;;;;;;;40.85;11.60;;;;;;;;;;6204835;23;20059;-93
2022/01/16 21:18:30;;;;;;;22.45;10.77;;;;;;;;;;6209740;23;20029;-93
2022/01/16 21:21:03;;;;;;;27.33;9.25;;;;;;;;;;6212169;23;20013;-93
2022/01/16 21:23:30;;;;;;;24.52;9.40;;;;;;;;;;6206420;23;20360;-92
2022/01/16 21:26:00;;;;;;;33.42;8.70;;;;;;;;;;6199304;23;20025;-92
2022/01/16 21:28:27;;;;;;;35.58;10.05;;;;;;;;;;6227715;23;20036;-92
2022/01/16 21:30:54;;;;;;;31.55;8.35;;;;;;;;;;6202040;23;20025;-92
2022/01/16 21:33:45;;;;;;;32.78;9.00;;;;;;;;;;6204236;22;20044;-93
2022/01/16 21:36:13;;;;;;;26.42;8.80;;;;;;;;;;6205637;23;20048;-92
2022/01/16 21:38:40;;;;;;;26.50;7.30;;;;;;;;;;6203501;23;20032;-93
2022/01/16 21:41:13;;;;;;;27.35;7.53;;;;;;;;;;6203179;23;20038;-93
2022/01/16 21:43:41;;;;;;;27.00;7.25;;;;;;;;;;6203729;23;20030;-93
2022/01/16 21:46:08;;;;;;;31.75;7.00;;;;;;;;;;6206429;23;20036;-93
2022/01/16 21:48:37;;;;;;;34.10;7.22;;;;;;;;;;6206104;23;20467;-92
2022/01/16 21:51:12;;;;;;;33.38;6.68;;;;;;;;;;6207424;23;20033;-92
2022/01/16 21:53:39;;;;;;;28.58;6.97;;;;;;;;;;6208687;23;20070;-93
2022/01/16 21:56:11;;;;;;;42.17;8.02;;;;;;;;;;6210785;22;20085;-92
2022/01/16 21:58:50;;;;;;;34.78;7.38;;;;;;;;;;6213747;23;20030;-94
2022/01/16 22:01:21;;;;;;;37.50;6.85;;;;;;;;;;6213372;22;20017;-93
2022/01/16 22:03:51;;;;;;;32.50;6.32;;;;;;;;;;6212349;23;20013;-93
2022/01/16 22:06:21;;;;;;;30.80;6.22;;;;;;;;;;6211591;23;20017;-93
2022/01/16 22:08:49;;;;;;;25.85;6.03;;;;;;;;;;6210191;22;20036;-92
2022/01/16 22:11:31;;;;;;;27.05;6.50;;;;;;;;;;6208179;23;20024;-92
2022/01/16 22:13:59;;;;;;;29.67;7.15;;;;;;;;;;6210527;22;20074;-92
2022/01/16 22:16:26;;;;;;;20.63;4.18;;;;;;;;;;6209306;23;20038;-92
2022/01/16 22:18:59;;;;;;;22.25;4.28;;;;;;;;;;6208779;23;20045;-93
2022/01/16 22:21:27;;;;;;;19.42;4.00;;;;;;;;;;6209118;23;20035;-92
2022/01/16 22:23:53;;;;;;;25.77;3.53;;;;;;;;;;6209611;23;20039;-92
2022/01/16 22:26:35;;;;;;;25.50;3.55;;;;;;;;;;6207526;23;20032;-92
2022/01/16 22:29:04;;;;;;;17.38;2.63;;;;;;;;;;6207832;23;20074;-92
2022/01/16 22:31:31;;;;;;;14.30;2.08;;;;;;;;;;6208453;23;20070;-92
2022/01/16 22:33:58;;;;;;;23.05;2.15;;;;;;;;;;6208626;23;20221;-93
2022/01/16 22:36:25;;;;;;;19.13;1.50;;;;;;;;;;6208118;23;20039;-92
2022/01/16 22:39:06;;;;;;;14.40;1.42;;;;;;;;;;6211968;23;20032;-93
2022/01/16 22:41:33;;;;;;;17.50;2.03;;;;;;;;;;6210943;22;20531;-93
2022/01/16 22:44:14;;;;;;;16.02;2.08;;;;;;;;;;6173784;23;20036;-94
2022/01/16 22:46:44;;;;;;;14.00;1.85;;;;;;;;;;6181268;23;20009;-93
2022/01/16 22:49:33;;;;;;;15.90;2.22;;;;;;;;;;6181525;22;20055;-94
2022/01/16 22:52:01;;;;;;;13.70;1.67;;;;;;;;;;6181412;22;20023;-93
2022/01/16 22:54:32;;;;;;;13.68;1.67;;;;;;;;;;6181828;22;20028;-93
2022/01/16 22:57:15;;;;;;;21.77;2.10;;;;;;;;;;6182295;22;20027;-93
2022/01/16 22:59:42;;;;;;;12.02;1.83;;;;;;;;;;6181789;22;20017;-93
2022/01/16 23:02:11;;;;;;;18.50;2.83;;;;;;;;;;6181960;22;20010;-92
2022/01/16 23:04:39;;;;;;;22.83;2.42;;;;;;;;;;6181860;22;20028;-93
2022/01/16 23:07:06;;;;;;;20.83;2.42;;;;;;;;;;6180759;23;20041;-94
2022/01/16 23:09:33;;;;;;;33.20;2.63;;;;;;;;;;6180535;22;20013;-94
2022/01/16 23:12:03;;;;;;;24.65;2.97;;;;;;;;;;6181459;23;20029;-93
2022/01/16 23:14:31;;;;;;;20.42;2.83;;;;;;;;;;6204819;22;20024;-93
2022/01/16 23:17:04;;;;;;;31.27;3.00;;;;;;;;;;6179434;23;20013;-94
2022/01/16 23:19:32;;;;;;;17.73;2.42;;;;;;;;;;6181553;22;20024;-94
2022/01/16 23:21:59;;;;;;;23.05;3.05;;;;;;;;;;6181634;22;20038;-93
2022/01/16 23:24:27;;;;;;;18.05;3.08;;;;;;;;;;6181341;23;20017;-93
2022/01/16 23:26:54;;;;;;;20.30;2.17;;;;;;;;;;6179419;22;20023;-93
2022/01/16 23:29:34;;;;;;;22.48;2.33;;;;;;;;;;6182523;22;20005;-93
2022/01/16 23:32:05;;;;;;;27.13;2.42;;;;;;;;;;6181459;22;20064;-94
2022/01/16 23:34:32;;;;;;;18.30;2.75;;;;;;;;;;6181166;22;20025;-94
2022/01/16 23:37:02;;;;;;;16.42;2.00;;;;;;;;;;6181661;22;20025;-94
2022/01/16 23:39:28;;;;;;;20.23;2.22;;;;;;;;;;6180551;22;20058;-93
2022/01/16 23:41:56;;;;;;;20.08;2.88;;;;;;;;;;6181552;22;20040;-93
2022/01/16 23:44:27;;;;;;;21.02;2.65;;;;;;;;;;6200864;23;20029;-94
2022/01/16 23:46:57;;;;;;;24.88;2.78;;;;;;;;;;6205413;23;20029;-94
2022/01/16 23:49:29;;;;;;;18.20;2.80;;;;;;;;;;6205435;23;20048;-93
2022/01/16 23:52:06;;;;;;;21.52;2.65;;;;;;;;;;6205241;23;20036;-94
2022/01/16 23:54:36;;;;;;;23.10;3.17;;;;;;;;;;6205218;23;20035;-93
2022/01/16 23:57:03;;;;;;;20.90;2.42;;;;;;;;;;6205917;23;20017;-93
2022/01/16 23:59:33;;;;;;;24.02;2.30;;;;;;;;;;6180944;23;20025;-93
